Terminal Aerodrome Forecast
Issued by NWS

Home | Current Version | Previous Version | Text Only | Print | Product List | Glossary On
Versions: 1 2 3 4 5 6 7 8 9 10 11 12 13 14 15 16 17
000
FTUS42 TJSJ 200000 AAA
TAFIST
TAF AMD
TIST 200028Z 2000/2024 09008KT P6SM VCSH FEW025
      TEMPO 2001/2003 VRB10KT 4SM SHRA BKN025
     FM201300 11012KT P6SM VCSH SCT025
     FM202200 09008KT P6SM VCSH FEW025=

USA.gov is the U.S. government's official web portal to all federal, state and local government web resources and services.